Time;durP1;ratioP1;P1;durP2;ratioP2;P2;SDS_P1;SDS_P2;PMS_P1;PMS_P2;Temp;Humidity;BMP_temperature;BMP_pressure;BME280_temperature;BME280_humidity;BME280_pressure;Samples;Min_cycle;Max_cycle;Signal;HPM_P1;HPM_P2
2023/09/15 00:00:24;;;;;;;10.27;5.82;;;;;;;;;;6141945;23;20666;-92
2023/09/15 00:03:30;;;;;;;11.93;6.50;;;;;;;;;;6142715;23;20586;-94
2023/09/15 00:06:36;;;;;;;9.57;6.22;;;;;;;;;;6140874;23;20169;-92
2023/09/15 00:09:41;;;;;;;10.32;5.53;;;;;;;;;;6141537;23;20202;-92
2023/09/15 00:12:49;;;;;;;12.02;6.05;;;;;;;;;;6141592;23;20161;-92
2023/09/15 00:15:54;;;;;;;11.23;5.85;;;;;;;;;;6139350;23;20214;-90
2023/09/15 00:19:05;;;;;;;10.75;5.95;;;;;;;;;;6139965;23;20177;-94
2023/09/15 00:22:11;;;;;;;9.98;5.30;;;;;;;;;;6138790;23;20215;-91
2023/09/15 00:25:18;;;;;;;10.40;5.78;;;;;;;;;;6138327;23;20173;-94
2023/09/15 00:28:25;;;;;;;8.52;5.78;;;;;;;;;;6137762;23;20165;-93
2023/09/15 00:31:30;;;;;;;9.88;5.60;;;;;;;;;;6136816;23;20169;-93
2023/09/15 00:34:35;;;;;;;15.07;5.97;;;;;;;;;;6138283;23;20173;-93
2023/09/15 00:37:40;;;;;;;10.50;5.13;;;;;;;;;;6140074;23;20196;-93
2023/09/15 00:40:46;;;;;;;10.73;5.35;;;;;;;;;;6123167;23;20605;-93
2023/09/15 00:43:54;;;;;;;11.48;5.55;;;;;;;;;;6139467;23;20157;-93
2023/09/15 00:46:59;;;;;;;8.77;5.00;;;;;;;;;;6139114;23;20173;-90
2023/09/15 00:50:06;;;;;;;10.20;4.88;;;;;;;;;;6140051;23;20157;-93
2023/09/15 00:53:13;;;;;;;7.90;4.97;;;;;;;;;;6139693;23;20165;-94
2023/09/15 00:56:19;;;;;;;10.43;5.65;;;;;;;;;;6137313;23;20228;-91
2023/09/15 00:59:25;;;;;;;9.18;5.22;;;;;;;;;;6121118;23;20175;-92
2023/09/15 01:02:32;;;;;;;7.95;5.07;;;;;;;;;;6121424;23;20173;-92
2023/09/15 01:05:38;;;;;;;17.88;5.55;;;;;;;;;;6121743;23;20161;-92
2023/09/15 01:08:43;;;;;;;10.05;5.32;;;;;;;;;;6138161;23;20198;-93
2023/09/15 01:11:50;;;;;;;8.73;4.90;;;;;;;;;;6120886;23;20169;-91
2023/09/15 01:14:56;;;;;;;12.50;5.18;;;;;;;;;;6121529;23;20172;-90
2023/09/15 01:18:04;;;;;;;8.07;4.55;;;;;;;;;;6139135;23;20197;-93
2023/09/15 01:21:17;;;;;;;7.05;4.60;;;;;;;;;;6111970;23;20197;-90
2023/09/15 01:24:30;;;;;;;7.22;4.40;;;;;;;;;;6129484;23;20166;-93
2023/09/15 01:27:53;;;;;;;7.78;4.40;;;;;;;;;;6129519;23;20153;-93
2023/09/15 01:31:00;;;;;;;7.22;4.40;;;;;;;;;;6128524;23;20569;-94
2023/09/15 01:34:13;;;;;;;7.22;4.47;;;;;;;;;;6129042;23;20173;-92
2023/09/15 01:37:18;;;;;;;7.28;4.20;;;;;;;;;;6128208;23;20192;-94
2023/09/15 01:40:23;;;;;;;6.68;4.35;;;;;;;;;;6129593;23;20169;-92
2023/09/15 01:43:28;;;;;;;7.32;4.30;;;;;;;;;;6129493;23;20662;-93
2023/09/15 01:46:35;;;;;;;6.45;4.28;;;;;;;;;;6128603;23;20523;-91
2023/09/15 01:49:40;;;;;;;9.70;4.72;;;;;;;;;;6113188;23;20226;-91
2023/09/15 01:52:46;;;;;;;7.25;4.68;;;;;;;;;;6128758;23;20174;-92
2023/09/15 01:55:52;;;;;;;7.25;4.10;;;;;;;;;;6130481;23;20158;-92
2023/09/15 01:59:00;;;;;;;7.50;4.47;;;;;;;;;;6129142;23;20198;-91
2023/09/15 02:02:06;;;;;;;5.57;4.28;;;;;;;;;;6112748;23;20171;-90
2023/09/15 02:05:13;;;;;;;7.90;4.55;;;;;;;;;;6129159;23;20172;-92
2023/09/15 02:08:18;;;;;;;6.82;4.25;;;;;;;;;;6128404;23;20290;-91
2023/09/15 02:11:24;;;;;;;7.40;4.40;;;;;;;;;;6113731;23;20178;-93
2023/09/15 02:14:29;;;;;;;5.05;3.60;;;;;;;;;;6114638;23;20243;-91
2023/09/15 02:17:37;;;;;;;9.05;4.03;;;;;;;;;;6130039;23;20197;-92
2023/09/15 02:20:43;;;;;;;7.63;4.25;;;;;;;;;;6143336;23;20198;-91
2023/09/15 02:23:49;;;;;;;5.72;3.92;;;;;;;;;;6142216;23;20186;-92
2023/09/15 02:26:54;;;;;;;6.78;4.28;;;;;;;;;;6142458;23;20181;-92
2023/09/15 02:29:59;;;;;;;8.13;4.03;;;;;;;;;;6125191;23;20531;-92
2023/09/15 02:33:05;;;;;;;8.77;4.50;;;;;;;;;;6142154;23;20173;-95
2023/09/15 02:36:10;;;;;;;7.53;3.80;;;;;;;;;;6142368;23;20189;-91
2023/09/15 02:39:16;;;;;;;6.68;3.97;;;;;;;;;;6141744;23;20193;-93
2023/09/15 02:42:22;;;;;;;8.82;4.07;;;;;;;;;;6143023;23;20559;-93
2023/09/15 02:45:27;;;;;;;8.60;4.18;;;;;;;;;;6124845;23;20233;-92
2023/09/15 02:48:35;;;;;;;7.75;4.70;;;;;;;;;;6140881;23;20169;-93
2023/09/15 02:51:41;;;;;;;7.03;4.80;;;;;;;;;;6142517;23;20169;-94
2023/09/15 02:54:49;;;;;;;8.57;4.82;;;;;;;;;;6141696;23;20173;-91
2023/09/15 02:57:54;;;;;;;8.55;4.72;;;;;;;;;;6139555;23;20220;-92
2023/09/15 03:01:00;;;;;;;9.32;4.80;;;;;;;;;;6139787;23;20172;-94
2023/09/15 03:04:08;;;;;;;8.65;4.25;;;;;;;;;;6142152;23;20662;-93
2023/09/15 03:07:14;;;;;;;8.07;4.53;;;;;;;;;;6140497;23;20178;-91
2023/09/15 03:10:19;;;;;;;7.03;4.40;;;;;;;;;;6139411;23;20153;-93
2023/09/15 03:13:26;;;;;;;6.50;4.32;;;;;;;;;;6122958;23;20185;-91
2023/09/15 03:16:32;;;;;;;9.07;4.38;;;;;;;;;;6140751;23;20173;-93
2023/09/15 03:19:39;;;;;;;8.13;4.75;;;;;;;;;;6142679;23;20196;-92
2023/09/15 03:22:45;;;;;;;7.43;4.43;;;;;;;;;;6129964;23;20166;-91
2023/09/15 03:25:59;;;;;;;11.30;4.85;;;;;;;;;;6129815;23;20207;-92
2023/09/15 03:29:06;;;;;;;9.82;4.80;;;;;;;;;;6130140;23;20178;-91
2023/09/15 03:32:11;;;;;;;7.65;4.65;;;;;;;;;;6128086;23;20186;-94
2023/09/15 03:35:18;;;;;;;9.85;4.82;;;;;;;;;;6127145;23;20162;-94
2023/09/15 03:38:23;;;;;;;11.63;4.32;;;;;;;;;;6125641;23;20632;-92
2023/09/15 03:41:28;;;;;;;9.57;5.10;;;;;;;;;;6127076;23;20195;-93
2023/09/15 03:44:35;;;;;;;6.35;4.50;;;;;;;;;;6128560;23;20219;-94
2023/09/15 03:47:41;;;;;;;8.95;4.75;;;;;;;;;;6128632;23;20170;-93
2023/09/15 03:50:50;;;;;;;9.95;5.25;;;;;;;;;;6128717;23;20613;-93
2023/09/15 03:53:55;;;;;;;9.80;4.93;;;;;;;;;;6127621;23;20178;-94
2023/09/15 03:57:01;;;;;;;8.57;4.88;;;;;;;;;;6127237;23;20177;-91
2023/09/15 04:00:11;;;;;;;11.10;5.55;;;;;;;;;;6128000;23;20154;-92
2023/09/15 04:03:17;;;;;;;7.18;4.53;;;;;;;;;;6110692;23;20194;-90
2023/09/15 04:06:24;;;;;;;11.90;4.72;;;;;;;;;;6110046;23;20222;-93
2023/09/15 04:09:30;;;;;;;11.07;4.35;;;;;;;;;;6135078;23;20154;-92
2023/09/15 04:12:36;;;;;;;9.45;5.25;;;;;;;;;;6118765;23;20215;-93
2023/09/15 04:15:42;;;;;;;13.32;5.38;;;;;;;;;;6131916;23;20207;-92
2023/09/15 04:18:53;;;;;;;11.38;4.40;;;;;;;;;;6135590;23;20191;-91
2023/09/15 04:22:03;;;;;;;7.63;4.35;;;;;;;;;;6140434;23;20632;-93
2023/09/15 04:25:11;;;;;;;6.88;4.60;;;;;;;;;;6129076;23;20170;-93
2023/09/15 04:28:18;;;;;;;7.97;4.75;;;;;;;;;;6145047;23;20160;-88
2023/09/15 04:31:24;;;;;;;8.70;4.88;;;;;;;;;;6130128;23;20169;-91
2023/09/15 04:34:39;;;;;;;8.32;4.97;;;;;;;;;;6148652;23;20169;-96
2023/09/15 04:37:51;;;;;;;10.77;5.22;;;;;;;;;;6149479;23;20231;-91
2023/09/15 08:16:01;;;;;;;2.60;1.80;;;;;;;;;;6123632;23;20217;-87
2023/09/15 08:19:07;;;;;;;3.53;1.73;;;;;;;;;;6127591;23;20200;-92
2023/09/15 08:22:14;;;;;;;2.80;1.70;;;;;;;;;;6124652;23;20229;-91
2023/09/15 08:25:20;;;;;;;2.35;1.48;;;;;;;;;;6122332;23;20234;-92
2023/09/15 08:28:26;;;;;;;2.35;1.50;;;;;;;;;;6121793;23;20173;-91
2023/09/15 08:31:33;;;;;;;2.25;1.50;;;;;;;;;;6121896;23;20178;-91
2023/09/15 08:34:38;;;;;;;2.95;1.55;;;;;;;;;;6122135;23;20173;-90
2023/09/15 08:37:43;;;;;;;3.67;1.85;;;;;;;;;;6124960;23;20300;-88
2023/09/15 08:40:51;;;;;;;2.70;1.50;;;;;;;;;;6121755;23;20310;-90
2023/09/15 08:43:57;;;;;;;2.35;1.67;;;;;;;;;;6123661;23;20213;-89
2023/09/15 08:47:04;;;;;;;1.92;1.45;;;;;;;;;;6118920;23;20179;-90
2023/09/15 08:50:10;;;;;;;3.70;1.35;;;;;;;;;;6120031;23;20172;-90
2023/09/15 08:53:16;;;;;;;3.95;1.63;;;;;;;;;;6119137;23;20191;-91
2023/09/15 08:56:21;;;;;;;2.65;1.75;;;;;;;;;;6120941;23;20172;-88
2023/09/15 08:59:26;;;;;;;3.25;1.80;;;;;;;;;;6122052;23;20216;-91
2023/09/15 09:02:34;;;;;;;1.80;1.60;;;;;;;;;;6124437;23;20212;-90
2023/09/15 09:05:39;;;;;;;1.73;1.25;;;;;;;;;;6125250;23;20342;-91
2023/09/15 09:08:48;;;;;;;3.42;1.77;;;;;;;;;;6126254;23;20164;-88
2023/09/15 09:11:57;;;;;;;1.73;1.30;;;;;;;;;;6127898;23;20177;-89
2023/09/15 09:15:03;;;;;;;2.33;1.40;;;;;;;;;;6145623;23;20164;-93
2023/09/15 09:18:24;;;;;;;2.45;1.77;;;;;;;;;;6129509;23;20152;-89
2023/09/15 09:21:30;;;;;;;1.90;1.40;;;;;;;;;;6129621;23;20205;-90
2023/09/15 09:24:36;;;;;;;2.97;1.67;;;;;;;;;;6129403;23;20193;-89
2023/09/15 09:27:43;;;;;;;3.42;1.60;;;;;;;;;;6128600;23;20172;-89
2023/09/15 09:30:48;;;;;;;3.20;1.63;;;;;;;;;;6128871;23;20220;-90
2023/09/15 09:33:59;;;;;;;1.58;1.30;;;;;;;;;;6128714;23;20180;-92
2023/09/15 09:37:06;;;;;;;1.88;1.23;;;;;;;;;;6128722;23;20241;-89
2023/09/15 09:40:17;;;;;;;1.52;1.30;;;;;;;;;;6147164;23;20247;-91
2023/09/15 09:43:24;;;;;;;1.83;1.50;;;;;;;;;;6128543;23;20177;-90
2023/09/15 09:46:36;;;;;;;1.92;1.48;;;;;;;;;;6129321;23;20189;-87
2023/09/15 09:49:43;;;;;;;2.10;1.67;;;;;;;;;;6128667;23;20233;-91
2023/09/15 09:52:49;;;;;;;1.58;1.20;;;;;;;;;;6129307;23;20176;-88
2023/09/15 09:55:55;;;;;;;3.63;1.40;;;;;;;;;;6129584;23;20688;-89
2023/09/15 09:59:02;;;;;;;1.60;1.20;;;;;;;;;;6128418;23;20648;-91
2023/09/15 10:02:18;;;;;;;3.42;1.50;;;;;;;;;;6131876;23;20171;-93
2023/09/15 10:05:26;;;;;;;2.55;1.75;;;;;;;;;;6130987;23;20189;-90
2023/09/15 10:08:32;;;;;;;2.10;1.60;;;;;;;;;;6131039;23;20169;-89
2023/09/15 10:14:59;;;;;;;1.42;1.30;;;;;;;;;;6132353;23;20169;-90
2023/09/15 10:18:06;;;;;;;2.55;1.58;;;;;;;;;;6132381;23;20185;-91
2023/09/15 10:21:14;;;;;;;2.25;1.50;;;;;;;;;;6129806;23;20226;-91
2023/09/15 10:24:21;;;;;;;2.28;1.48;;;;;;;;;;6130755;23;20168;-89
2023/09/15 10:27:26;;;;;;;2.47;1.60;;;;;;;;;;6130870;23;20152;-91
2023/09/15 10:30:36;;;;;;;4.53;1.50;;;;;;;;;;6131960;23;20181;-90
2023/09/15 10:33:42;;;;;;;2.00;1.45;;;;;;;;;;6127912;23;20529;-90
2023/09/15 10:36:52;;;;;;;2.85;1.30;;;;;;;;;;6128872;23;20213;-92
2023/09/15 10:39:59;;;;;;;2.42;1.40;;;;;;;;;;6129634;23;20260;-91
2023/09/15 10:43:09;;;;;;;2.30;1.50;;;;;;;;;;6127362;23;20224;-92
2023/09/15 10:49:37;;;;;;;2.03;1.30;;;;;;;;;;6130958;23;20173;-91
2023/09/15 10:52:46;;;;;;;3.38;1.20;;;;;;;;;;6130796;23;20180;-89
2023/09/15 10:56:10;;;;;;;3.53;1.52;;;;;;;;;;6131121;23;20229;-90
2023/09/15 10:59:16;;;;;;;1.70;1.38;;;;;;;;;;6113213;23;20254;-91
2023/09/15 11:02:22;;;;;;;2.50;2.03;;;;;;;;;;6132006;23;20169;-91
2023/09/15 11:05:38;;;;;;;2.90;2.00;;;;;;;;;;6150323;23;20175;-92
2023/09/15 11:09:04;;;;;;;2.30;1.60;;;;;;;;;;6131242;23;20190;-89
2023/09/15 11:12:15;;;;;;;3.92;1.67;;;;;;;;;;6133067;23;20205;-90
2023/09/15 11:15:25;;;;;;;4.65;1.30;;;;;;;;;;6131665;23;20188;-92
2023/09/15 11:18:37;;;;;;;1.65;1.50;;;;;;;;;;6119173;23;20192;-92
2023/09/15 11:21:43;;;;;;;2.40;1.65;;;;;;;;;;6118994;23;20173;-92
2023/09/15 11:28:25;;;;;;;2.08;1.35;;;;;;;;;;6116507;23;20205;-91
2023/09/15 11:31:35;;;;;;;2.53;1.70;;;;;;;;;;6116591;23;20249;-91
2023/09/15 11:34:40;;;;;;;5.43;1.70;;;;;;;;;;6116248;23;20270;-90
2023/09/15 11:37:52;;;;;;;5.78;1.70;;;;;;;;;;6116874;23;20198;-90
2023/09/15 11:44:24;;;;;;;2.83;1.50;;;;;;;;;;6113839;23;20173;-91
2023/09/15 11:47:32;;;;;;;2.25;1.50;;;;;;;;;;6116474;23;20173;-90
2023/09/15 11:50:38;;;;;;;2.70;1.30;;;;;;;;;;6119765;23;20230;-92
2023/09/15 11:57:03;;;;;;;2.08;1.70;;;;;;;;;;6119416;23;20228;-90
2023/09/15 12:00:11;;;;;;;1.95;1.60;;;;;;;;;;6119487;23;20196;-91
2023/09/15 12:03:18;;;;;;;5.63;3.13;;;;;;;;;;6112222;23;20168;-88
2023/09/15 12:06:23;;;;;;;2.78;1.52;;;;;;;;;;6116797;23;20172;-91
2023/09/15 12:09:29;;;;;;;1.92;1.58;;;;;;;;;;6106011;23;20173;-90
2023/09/15 12:12:35;;;;;;;2.50;1.70;;;;;;;;;;6105277;23;20228;-90
2023/09/15 12:15:41;;;;;;;2.25;1.50;;;;;;;;;;6107473;23;20234;-92
2023/09/15 12:18:47;;;;;;;3.83;1.60;;;;;;;;;;6106052;23;20170;-91
2023/09/15 12:21:53;;;;;;;2.58;1.65;;;;;;;;;;6103953;23;20653;-92
2023/09/15 12:24:59;;;;;;;2.00;1.60;;;;;;;;;;6111823;23;20173;-90
2023/09/15 12:28:04;;;;;;;2.17;1.60;;;;;;;;;;6107096;23;20168;-91
2023/09/15 12:31:15;;;;;;;2.65;1.75;;;;;;;;;;6109546;23;20165;-91
2023/09/15 12:34:24;;;;;;;4.85;1.70;;;;;;;;;;6108630;23;20173;-91
2023/09/15 12:37:29;;;;;;;1.80;1.58;;;;;;;;;;6108659;23;20177;-93
2023/09/15 12:40:34;;;;;;;1.48;1.38;;;;;;;;;;6108517;23;20200;-91
2023/09/15 12:43:40;;;;;;;5.20;1.90;;;;;;;;;;6110949;23;20166;-91
2023/09/15 12:46:47;;;;;;;2.30;1.58;;;;;;;;;;6097839;23;20225;-90
2023/09/15 12:49:52;;;;;;;2.30;1.50;;;;;;;;;;6109647;23;20221;-90
2023/09/15 12:52:57;;;;;;;2.30;1.50;;;;;;;;;;6113062;23;20179;-90
2023/09/15 12:56:03;;;;;;;2.20;1.95;;;;;;;;;;6110093;23;20169;-90
2023/09/15 12:59:08;;;;;;;2.10;1.63;;;;;;;;;;6107931;23;20188;-90
2023/09/15 13:02:14;;;;;;;2.03;1.50;;;;;;;;;;6108097;23;20188;-91
2023/09/15 13:05:19;;;;;;;2.08;1.60;;;;;;;;;;6110221;23;20169;-91
2023/09/15 13:08:24;;;;;;;1.83;1.40;;;;;;;;;;6113276;23;20177;-92
2023/09/15 13:11:29;;;;;;;2.85;2.20;;;;;;;;;;6107686;23;20290;-89
2023/09/15 13:14:35;;;;;;;3.10;1.70;;;;;;;;;;6109331;23;20227;-91
2023/09/15 13:17:42;;;;;;;3.42;2.10;;;;;;;;;;6107805;23;20201;-90
2023/09/15 13:20:47;;;;;;;3.10;2.17;;;;;;;;;;6112092;23;20197;-91
2023/09/15 13:23:54;;;;;;;2.25;1.60;;;;;;;;;;6107214;23;20173;-90
2023/09/15 13:27:02;;;;;;;2.63;1.92;;;;;;;;;;6108996;23;20169;-92
2023/09/15 13:30:09;;;;;;;2.58;1.73;;;;;;;;;;6111299;23;20176;-91
2023/09/15 13:33:16;;;;;;;2.85;2.00;;;;;;;;;;6110796;23;20601;-90
2023/09/15 13:36:22;;;;;;;2.75;1.88;;;;;;;;;;6110492;23;20168;-91
2023/09/15 13:39:28;;;;;;;2.83;1.73;;;;;;;;;;6110753;23;20173;-91
2023/09/15 13:42:34;;;;;;;2.50;1.90;;;;;;;;;;6106226;23;20216;-90
2023/09/15 13:45:39;;;;;;;2.20;1.80;;;;;;;;;;6109556;23;20235;-91
2023/09/15 13:48:46;;;;;;;2.78;1.80;;;;;;;;;;6110282;23;20231;-91
2023/09/15 13:51:51;;;;;;;3.17;1.90;;;;;;;;;;6107469;23;20221;-92
2023/09/15 13:55:10;;;;;;;3.15;1.80;;;;;;;;;;6110713;23;20173;-90
2023/09/15 13:58:16;;;;;;;3.17;1.88;;;;;;;;;;6104744;23;20173;-90
2023/09/15 14:01:21;;;;;;;2.70;1.95;;;;;;;;;;6106832;23;20200;-90
2023/09/15 14:04:27;;;;;;;4.30;2.60;;;;;;;;;;6107236;23;20492;-90
2023/09/15 14:07:33;;;;;;;3.60;2.30;;;;;;;;;;6108311;23;20168;-90
2023/09/15 14:10:38;;;;;;;2.28;1.73;;;;;;;;;;6107195;23;20177;-91
2023/09/15 14:13:43;;;;;;;2.88;2.22;;;;;;;;;;6107713;23;20165;-91
2023/09/15 14:16:49;;;;;;;2.85;2.10;;;;;;;;;;6116119;23;20195;-89
2023/09/15 14:19:57;;;;;;;4.15;2.25;;;;;;;;;;6124064;23;20240;-90
2023/09/15 14:23:02;;;;;;;3.65;1.80;;;;;;;;;;6120255;23;20165;-90
2023/09/15 14:26:08;;;;;;;2.67;1.90;;;;;;;;;;6118825;23;20239;-90
2023/09/15 14:29:14;;;;;;;7.72;1.90;;;;;;;;;;6121950;23;20156;-91
2023/09/15 14:32:19;;;;;;;3.22;2.05;;;;;;;;;;6141634;23;20308;-89
2023/09/15 14:35:26;;;;;;;3.78;2.00;;;;;;;;;;6123611;23;20284;-90
2023/09/15 14:38:31;;;;;;;3.53;2.30;;;;;;;;;;6123715;23;20321;-90
2023/09/15 14:41:38;;;;;;;3.15;1.90;;;;;;;;;;6124867;23;20270;-91
2023/09/15 14:44:43;;;;;;;2.72;2.13;;;;;;;;;;6132682;23;20164;-90
2023/09/15 14:47:49;;;;;;;3.33;1.90;;;;;;;;;;6127876;23;20506;-90
2023/09/15 14:50:57;;;;;;;3.05;2.05;;;;;;;;;;6125058;23;20237;-90
2023/09/15 14:54:03;;;;;;;6.18;2.03;;;;;;;;;;6125751;23;20200;-90
2023/09/15 14:57:16;;;;;;;5.82;2.35;;;;;;;;;;6125276;23;20326;-90
2023/09/15 15:00:21;;;;;;;5.68;2.10;;;;;;;;;;6125820;23;20199;-90
2023/09/15 15:03:27;;;;;;;3.55;2.05;;;;;;;;;;6126068;23;20192;-89
2023/09/15 15:06:34;;;;;;;3.88;2.20;;;;;;;;;;6125683;23;20168;-90
2023/09/15 15:09:41;;;;;;;2.70;2.10;;;;;;;;;;6122941;23;20177;-89
2023/09/15 15:12:48;;;;;;;9.32;2.45;;;;;;;;;;6125020;23;20168;-88
2023/09/15 15:15:53;;;;;;;2.83;2.17;;;;;;;;;;6123554;23;20172;-90
2023/09/15 15:18:58;;;;;;;4.90;2.20;;;;;;;;;;6122546;23;20176;-89
2023/09/15 15:22:16;;;;;;;2.80;2.00;;;;;;;;;;6121633;23;20193;-88
2023/09/15 15:25:21;;;;;;;3.05;1.95;;;;;;;;;;6122243;23;20180;-89
2023/09/15 15:28:26;;;;;;;4.85;2.20;;;;;;;;;;6122899;23;20172;-90
2023/09/15 15:31:33;;;;;;;3.08;2.00;;;;;;;;;;6121323;23;20165;-89
2023/09/15 15:34:40;;;;;;;4.05;2.90;;;;;;;;;;6124739;23;20632;-90
2023/09/15 15:37:47;;;;;;;2.97;2.10;;;;;;;;;;6124999;23;20190;-92
2023/09/15 15:40:52;;;;;;;4.70;2.15;;;;;;;;;;6124044;23;20193;-90
2023/09/15 15:43:58;;;;;;;2.88;2.03;;;;;;;;;;6123193;23;20156;-90
2023/09/15 15:47:04;;;;;;;6.75;2.00;;;;;;;;;;6123510;23;20247;-88
2023/09/15 15:50:10;;;;;;;2.78;1.95;;;;;;;;;;6121686;23;20249;-89
2023/09/15 15:53:17;;;;;;;3.78;2.60;;;;;;;;;;6122120;23;20169;-91
2023/09/15 15:56:24;;;;;;;2.53;2.05;;;;;;;;;;6121924;23;20173;-89
2023/09/15 15:59:29;;;;;;;4.95;2.90;;;;;;;;;;6121925;23;20201;-92
2023/09/15 16:02:34;;;;;;;2.97;2.17;;;;;;;;;;6121341;23;20172;-88
2023/09/15 16:05:42;;;;;;;4.65;2.40;;;;;;;;;;6120907;23;20177;-90
2023/09/15 16:08:50;;;;;;;5.03;2.45;;;;;;;;;;6120957;23;20193;-89
2023/09/15 16:11:55;;;;;;;3.88;2.33;;;;;;;;;;6120036;23;20173;-86
2023/09/15 16:15:00;;;;;;;5.10;2.33;;;;;;;;;;6124634;23;20492;-89
2023/09/15 16:18:07;;;;;;;6.32;2.63;;;;;;;;;;6109007;23;20193;-90
2023/09/15 16:21:12;;;;;;;3.58;2.40;;;;;;;;;;6108627;23;20222;-91
2023/09/15 16:24:19;;;;;;;3.50;2.53;;;;;;;;;;6108699;23;20190;-89
2023/09/15 16:27:24;;;;;;;6.53;2.60;;;;;;;;;;6107941;23;20719;-90
2023/09/15 16:30:29;;;;;;;2.42;2.10;;;;;;;;;;6108137;23;20169;-91
2023/09/15 16:33:35;;;;;;;7.78;2.80;;;;;;;;;;6110323;23;20235;-91
2023/09/15 16:36:40;;;;;;;4.72;2.58;;;;;;;;;;6112436;23;20235;-89
2023/09/15 16:39:47;;;;;;;4.00;2.63;;;;;;;;;;6109760;23;20170;-88
2023/09/15 16:42:54;;;;;;;6.05;2.50;;;;;;;;;;6108370;23;20173;-90
2023/09/15 16:46:00;;;;;;;3.28;2.50;;;;;;;;;;6108337;23;20177;-90
2023/09/15 16:49:05;;;;;;;8.50;2.78;;;;;;;;;;6106637;23;20170;-90
2023/09/15 16:52:10;;;;;;;5.43;2.55;;;;;;;;;;6107966;23;20186;-90
2023/09/15 16:55:17;;;;;;;7.95;3.20;;;;;;;;;;6107578;23;20173;-89
2023/09/15 16:58:22;;;;;;;20.38;8.70;;;;;;;;;;6110168;23;20158;-89
2023/09/15 17:01:27;;;;;;;5.20;3.30;;;;;;;;;;6108869;23;20241;-90
2023/09/15 17:04:32;;;;;;;8.88;3.10;;;;;;;;;;6110733;23;20166;-91
2023/09/15 17:07:40;;;;;;;6.63;2.47;;;;;;;;;;6113222;23;20178;-88
2023/09/15 17:10:47;;;;;;;4.20;2.45;;;;;;;;;;6107522;23;20169;-90
2023/09/15 17:13:52;;;;;;;4.38;2.60;;;;;;;;;;6107221;23;20154;-89
2023/09/15 17:16:58;;;;;;;6.40;2.47;;;;;;;;;;6119135;23;20237;-89
2023/09/15 17:20:03;;;;;;;3.40;2.42;;;;;;;;;;6121864;23;20198;-89
2023/09/15 17:23:08;;;;;;;5.75;2.50;;;;;;;;;;6122128;23;20329;-89
2023/09/15 17:26:14;;;;;;;5.78;3.17;;;;;;;;;;6119546;23;20194;-89
2023/09/15 17:29:20;;;;;;;4.30;2.58;;;;;;;;;;6119698;23;20326;-88
2023/09/15 17:32:25;;;;;;;11.30;3.08;;;;;;;;;;6123464;23;20654;-91
2023/09/15 17:35:30;;;;;;;10.50;3.20;;;;;;;;;;6123247;23;20169;-90
2023/09/15 17:38:35;;;;;;;5.60;2.72;;;;;;;;;;6122556;23;20580;-90
2023/09/15 17:41:48;;;;;;;4.43;2.70;;;;;;;;;;6120089;23;20272;-88
2023/09/15 17:44:53;;;;;;;4.63;3.05;;;;;;;;;;6124581;23;20157;-89
2023/09/15 17:47:59;;;;;;;7.95;2.88;;;;;;;;;;6122473;23;20164;-89
2023/09/15 17:51:05;;;;;;;5.53;2.83;;;;;;;;;;6122696;23;20173;-89
2023/09/15 17:54:11;;;;;;;8.13;4.28;;;;;;;;;;6122704;23;20177;-89
2023/09/15 17:57:18;;;;;;;9.88;3.83;;;;;;;;;;6122007;23;20177;-89
2023/09/15 18:00:25;;;;;;;6.82;3.70;;;;;;;;;;6122550;23;20214;-89
2023/09/15 18:03:31;;;;;;;6.70;3.10;;;;;;;;;;6125284;23;20194;-91
2023/09/15 18:06:36;;;;;;;7.30;2.95;;;;;;;;;;6130448;23;20206;-87
2023/09/15 18:09:42;;;;;;;6.20;2.90;;;;;;;;;;6130290;23;20264;-86
2023/09/15 18:12:50;;;;;;;6.68;3.45;;;;;;;;;;6130671;23;20168;-87
2023/09/15 18:15:56;;;;;;;4.80;2.70;;;;;;;;;;6132576;23;20198;-89
2023/09/15 18:19:04;;;;;;;8.07;2.90;;;;;;;;;;6132077;23;20177;-88
2023/09/15 18:22:09;;;;;;;5.65;3.22;;;;;;;;;;6127702;23;20733;-92
2023/09/15 18:25:17;;;;;;;8.52;3.83;;;;;;;;;;6148553;23;20177;-89
2023/09/15 18:28:24;;;;;;;7.78;3.85;;;;;;;;;;6147346;23;20181;-89
2023/09/15 18:31:31;;;;;;;4.90;2.60;;;;;;;;;;6148542;23;20233;-87
2023/09/15 18:34:38;;;;;;;6.00;2.63;;;;;;;;;;6149138;23;20176;-90
2023/09/15 18:37:45;;;;;;;4.47;2.65;;;;;;;;;;6130700;23;20209;-90
2023/09/15 18:40:53;;;;;;;5.45;2.83;;;;;;;;;;6129271;23;20178;-91
2023/09/15 18:44:04;;;;;;;9.32;2.92;;;;;;;;;;6130595;23;20169;-90
2023/09/15 18:47:10;;;;;;;4.43;2.78;;;;;;;;;;6131016;23;20173;-89
2023/09/15 18:50:16;;;;;;;5.85;3.53;;;;;;;;;;6131297;23;20169;-89
2023/09/15 18:53:22;;;;;;;10.27;4.20;;;;;;;;;;6129244;23;20238;-89
2023/09/15 18:56:27;;;;;;;5.47;3.17;;;;;;;;;;6128724;23;20174;-90
2023/09/15 18:59:35;;;;;;;8.50;4.00;;;;;;;;;;6144795;23;20189;-88
2023/09/15 19:02:41;;;;;;;10.25;4.35;;;;;;;;;;6129047;23;20212;-90
2023/09/15 19:05:47;;;;;;;6.72;3.97;;;;;;;;;;6128117;23;20286;-87
2023/09/15 19:08:52;;;;;;;9.93;5.00;;;;;;;;;;6126428;23;20264;-92
2023/09/15 19:11:58;;;;;;;8.65;4.15;;;;;;;;;;6125496;23;20309;-90
2023/09/15 19:15:07;;;;;;;6.38;3.88;;;;;;;;;;6124222;23;20240;-88
2023/09/15 19:18:12;;;;;;;7.85;3.88;;;;;;;;;;6109908;23;20196;-90
2023/09/15 19:21:19;;;;;;;8.10;4.18;;;;;;;;;;6111930;23;20201;-89
2023/09/15 19:24:25;;;;;;;12.80;5.13;;;;;;;;;;6110625;23;20169;-88
2023/09/15 19:27:33;;;;;;;7.97;4.63;;;;;;;;;;6107968;23;20249;-90
2023/09/15 19:30:42;;;;;;;7.25;4.00;;;;;;;;;;6109312;23;20252;-88
2023/09/15 19:33:48;;;;;;;9.55;4.82;;;;;;;;;;6109762;23;20153;-88
2023/09/15 19:36:53;;;;;;;11.43;5.43;;;;;;;;;;6106131;23;20229;-87
2023/09/15 19:39:59;;;;;;;11.25;5.15;;;;;;;;;;6107983;23;20574;-89
2023/09/15 19:43:07;;;;;;;12.23;5.38;;;;;;;;;;6109556;23;20227;-89
2023/09/15 19:46:14;;;;;;;11.35;5.30;;;;;;;;;;6109553;23;20619;-89
2023/09/15 19:49:20;;;;;;;10.40;4.90;;;;;;;;;;6109234;23;20174;-87
2023/09/15 19:52:26;;;;;;;9.30;5.07;;;;;;;;;;6111267;23;20178;-88
2023/09/15 19:55:31;;;;;;;7.45;4.20;;;;;;;;;;6112485;23;20173;-88
2023/09/15 19:58:38;;;;;;;8.10;4.43;;;;;;;;;;6111439;23;20218;-90
2023/09/15 20:01:44;;;;;;;11.40;4.93;;;;;;;;;;6111750;23;20219;-89
2023/09/15 20:04:49;;;;;;;7.45;4.55;;;;;;;;;;6111739;23;20219;-88
2023/09/15 20:07:55;;;;;;;12.73;4.80;;;;;;;;;;6112583;23;20197;-90
2023/09/15 20:11:02;;;;;;;8.68;4.60;;;;;;;;;;6111850;23;20165;-88
2023/09/15 20:14:07;;;;;;;7.78;4.70;;;;;;;;;;6112634;23;20250;-90
2023/09/15 20:17:14;;;;;;;7.20;4.32;;;;;;;;;;6111838;23;20288;-89
2023/09/15 20:20:20;;;;;;;7.90;4.20;;;;;;;;;;6116976;23;20194;-89
2023/09/15 20:23:26;;;;;;;7.68;4.20;;;;;;;;;;6114285;23;20273;-89
2023/09/15 20:26:35;;;;;;;6.10;4.05;;;;;;;;;;6114815;23;20618;-92
2023/09/15 20:29:40;;;;;;;8.30;4.00;;;;;;;;;;6115001;23;20503;-90
2023/09/15 20:32:47;;;;;;;8.35;4.22;;;;;;;;;;6114781;23;20181;-89
2023/09/15 20:35:53;;;;;;;7.57;4.40;;;;;;;;;;6113993;23;20229;-90
2023/09/15 20:38:58;;;;;;;7.78;4.32;;;;;;;;;;6115124;23;20243;-89
2023/09/15 20:42:05;;;;;;;6.60;4.32;;;;;;;;;;6113850;23;20238;-91
2023/09/15 20:45:11;;;;;;;8.23;4.40;;;;;;;;;;6114848;23;20218;-89
2023/09/15 20:48:17;;;;;;;8.50;4.47;;;;;;;;;;6115773;23;20173;-91
2023/09/15 20:51:22;;;;;;;13.05;6.05;;;;;;;;;;6113336;23;20178;-89
2023/09/15 20:54:29;;;;;;;6.97;4.10;;;;;;;;;;6113067;23;20203;-89
2023/09/15 20:57:34;;;;;;;9.57;4.35;;;;;;;;;;6115039;23;20157;-87
2023/09/15 21:00:40;;;;;;;8.13;4.30;;;;;;;;;;6114478;23;20166;-89
2023/09/15 21:03:47;;;;;;;5.00;3.85;;;;;;;;;;6115237;23;20221;-88
2023/09/15 21:06:53;;;;;;;7.95;3.92;;;;;;;;;;6130477;23;20174;-90
2023/09/15 21:10:00;;;;;;;8.50;4.03;;;;;;;;;;6111414;23;20158;-89
2023/09/15 21:13:05;;;;;;;9.05;4.00;;;;;;;;;;6113468;23;20161;-89
2023/09/15 21:16:11;;;;;;;7.88;4.55;;;;;;;;;;6113701;23;20223;-92
2023/09/15 21:19:18;;;;;;;10.70;4.20;;;;;;;;;;6126164;23;20177;-89
2023/09/15 21:22:23;;;;;;;6.85;4.20;;;;;;;;;;6125585;23;20249;-88
2023/09/15 21:25:34;;;;;;;8.50;4.25;;;;;;;;;;6125084;23;20221;-90
2023/09/15 21:28:39;;;;;;;6.45;3.47;;;;;;;;;;6141834;23;20165;-88
2023/09/15 21:31:44;;;;;;;5.88;3.63;;;;;;;;;;6124423;23;20242;-89
2023/09/15 21:34:51;;;;;;;6.40;4.40;;;;;;;;;;6125650;23;20235;-89
2023/09/15 21:38:01;;;;;;;11.15;4.65;;;;;;;;;;6143049;23;20172;-88
2023/09/15 21:41:06;;;;;;;9.10;4.03;;;;;;;;;;6126722;23;20199;-90
2023/09/15 21:44:11;;;;;;;8.95;4.40;;;;;;;;;;6127847;23;20169;-88
2023/09/15 21:47:16;;;;;;;8.32;4.45;;;;;;;;;;6127136;23;20202;-89
2023/09/15 21:50:23;;;;;;;8.65;4.80;;;;;;;;;;6126784;23;20198;-89
2023/09/15 21:53:29;;;;;;;6.78;4.20;;;;;;;;;;6127428;23;20172;-90
2023/09/15 21:56:34;;;;;;;9.73;4.93;;;;;;;;;;6124764;23;20227;-90
2023/09/15 21:59:39;;;;;;;10.32;4.40;;;;;;;;;;6126287;23;20173;-90
2023/09/15 22:02:44;;;;;;;7.97;3.95;;;;;;;;;;6125664;23;20269;-90
2023/09/15 22:05:52;;;;;;;8.70;3.97;;;;;;;;;;6125094;23;20173;-87
2023/09/15 22:08:58;;;;;;;13.02;4.65;;;;;;;;;;6128464;23;20169;-90
2023/09/15 22:12:04;;;;;;;8.30;4.55;;;;;;;;;;6125333;23;20249;-90
2023/09/15 22:15:12;;;;;;;8.77;4.00;;;;;;;;;;6126418;23;20244;-89
2023/09/15 22:18:18;;;;;;;6.53;3.70;;;;;;;;;;6113611;23;20201;-87
2023/09/15 22:21:25;;;;;;;10.07;4.65;;;;;;;;;;6132428;23;20518;-89
2023/09/15 22:24:30;;;;;;;6.55;3.90;;;;;;;;;;6115304;23;20166;-89
2023/09/15 22:27:36;;;;;;;5.53;3.20;;;;;;;;;;6109737;23;20640;-90